sensor_id;sensor_type;location;lat;lon;timestamp;temperature;humidity
61912;DHT22;49973;52.084;5.412;2022-10-16T00:01:39;12.90;99.90
61912;DHT22;49973;52.084;5.412;2022-10-16T00:04:08;12.80;99.90
61912;DHT22;49973;52.084;5.412;2022-10-16T00:06:37;12.90;99.90
61912;DHT22;49973;52.084;5.412;2022-10-16T00:09:06;12.80;99.90
61912;DHT22;49973;52.084;5.412;2022-10-16T00:11:37;12.90;99.90
61912;DHT22;49973;52.084;5.412;2022-10-16T00:14:08;12.90;99.90
61912;DHT22;49973;52.084;5.412;2022-10-16T00:16:39;12.90;99.90
61912;DHT22;49973;52.084;5.412;2022-10-16T00:19:08;12.90;99.90
61912;DHT22;49973;52.084;5.412;2022-10-16T00:21:37;12.90;99.90
61912;DHT22;49973;52.084;5.412;2022-10-16T00:24:07;12.90;99.90
61912;DHT22;49973;52.084;5.412;2022-10-16T00:26:37;12.90;99.90
61912;DHT22;49973;52.084;5.412;2022-10-16T00:29:07;12.90;99.90
61912;DHT22;49973;52.084;5.412;2022-10-16T00:31:35;12.90;99.90
61912;DHT22;49973;52.084;5.412;2022-10-16T00:34:05;12.90;99.90
61912;DHT22;49973;52.084;5.412;2022-10-16T00:36:34;12.90;99.90
61912;DHT22;49973;52.084;5.412;2022-10-16T00:39:03;13.00;99.90
61912;DHT22;49973;52.084;5.412;2022-10-16T00:41:32;12.90;99.90
61912;DHT22;49973;52.084;5.412;2022-10-16T00:44:02;12.90;99.90
61912;DHT22;49973;52.084;5.412;2022-10-16T00:46:35;13.10;99.90
61912;DHT22;49973;52.084;5.412;2022-10-16T00:49:06;12.90;99.90
61912;DHT22;49973;52.084;5.412;2022-10-16T00:51:38;13.00;99.90
61912;DHT22;49973;52.084;5.412;2022-10-16T00:54:10;13.00;99.90
61912;DHT22;49973;52.084;5.412;2022-10-16T00:56:40;13.00;99.90
61912;DHT22;49973;52.084;5.412;2022-10-16T00:59:14;13.10;99.90
61912;DHT22;49973;52.084;5.412;2022-10-16T01:01:43;13.30;99.90
61912;DHT22;49973;52.084;5.412;2022-10-16T01:04:13;13.10;99.90
61912;DHT22;49973;52.084;5.412;2022-10-16T01:06:46;13.20;99.90
61912;DHT22;49973;52.084;5.412;2022-10-16T01:09:21;13.20;99.90
61912;DHT22;49973;52.084;5.412;2022-10-16T01:11:57;13.20;99.90
61912;DHT22;49973;52.084;5.412;2022-10-16T01:14:36;13.20;99.90
61912;DHT22;49973;52.084;5.412;2022-10-16T01:17:12;13.20;99.90
61912;DHT22;49973;52.084;5.412;2022-10-16T01:20:08;13.30;99.90
61912;DHT22;49973;52.084;5.412;2022-10-16T01:22:43;13.30;99.90
61912;DHT22;49973;52.084;5.412;2022-10-16T01:25:24;13.30;99.90
61912;DHT22;49973;52.084;5.412;2022-10-16T01:27:56;13.30;99.90
61912;DHT22;49973;52.084;5.412;2022-10-16T01:30:27;13.40;99.90
61912;DHT22;49973;52.084;5.412;2022-10-16T01:33:01;13.40;99.90
61912;DHT22;49973;52.084;5.412;2022-10-16T01:35:34;13.40;99.90
61912;DHT22;49973;52.084;5.412;2022-10-16T01:38:06;13.40;99.90
61912;DHT22;49973;52.084;5.412;2022-10-16T01:40:38;13.50;99.90
61912;DHT22;49973;52.084;5.412;2022-10-16T01:43:15;13.50;99.90
61912;DHT22;49973;52.084;5.412;2022-10-16T01:45:47;13.50;99.90
61912;DHT22;49973;52.084;5.412;2022-10-16T01:48:18;13.50;99.90
61912;DHT22;49973;52.084;5.412;2022-10-16T01:50:52;13.50;99.90
61912;DHT22;49973;52.084;5.412;2022-10-16T01:53:23;13.50;99.90
61912;DHT22;49973;52.084;5.412;2022-10-16T01:55:52;13.50;99.90
61912;DHT22;49973;52.084;5.412;2022-10-16T01:58:24;13.50;99.90
61912;DHT22;49973;52.084;5.412;2022-10-16T02:00:54;13.50;99.90
61912;DHT22;49973;52.084;5.412;2022-10-16T02:03:23;13.50;99.90
61912;DHT22;49973;52.084;5.412;2022-10-16T02:05:53;13.50;99.90
61912;DHT22;49973;52.084;5.412;2022-10-16T02:08:23;13.50;99.90
61912;DHT22;49973;52.084;5.412;2022-10-16T02:10:52;13.50;99.90
61912;DHT22;49973;52.084;5.412;2022-10-16T02:13:29;13.50;99.90
61912;DHT22;49973;52.084;5.412;2022-10-16T02:15:58;13.60;99.90
61912;DHT22;49973;52.084;5.412;2022-10-16T02:18:27;13.60;99.90
61912;DHT22;49973;52.084;5.412;2022-10-16T02:21:00;13.60;99.90
61912;DHT22;49973;52.084;5.412;2022-10-16T02:23:35;13.60;99.90
61912;DHT22;49973;52.084;5.412;2022-10-16T02:26:08;13.70;99.90
61912;DHT22;49973;52.084;5.412;2022-10-16T02:28:43;13.60;99.90
61912;DHT22;49973;52.084;5.412;2022-10-16T02:31:18;13.50;99.90
61912;DHT22;49973;52.084;5.412;2022-10-16T02:33:50;13.50;99.90
61912;DHT22;49973;52.084;5.412;2022-10-16T02:36:21;13.50;99.90
61912;DHT22;49973;52.084;5.412;2022-10-16T02:38:50;13.50;99.90
61912;DHT22;49973;52.084;5.412;2022-10-16T02:41:20;13.50;99.90
61912;DHT22;49973;52.084;5.412;2022-10-16T02:43:50;13.50;99.90
61912;DHT22;49973;52.084;5.412;2022-10-16T02:46:19;13.50;99.90
61912;DHT22;49973;52.084;5.412;2022-10-16T02:48:47;13.50;99.90
61912;DHT22;49973;52.084;5.412;2022-10-16T02:51:16;13.40;99.90
61912;DHT22;49973;52.084;5.412;2022-10-16T02:53:44;13.40;99.90
61912;DHT22;49973;52.084;5.412;2022-10-16T02:56:12;13.40;99.90
61912;DHT22;49973;52.084;5.412;2022-10-16T02:58:41;13.30;99.90
61912;DHT22;49973;52.084;5.412;2022-10-16T03:01:11;13.30;99.90
61912;DHT22;49973;52.084;5.412;2022-10-16T03:03:41;13.30;99.90
61912;DHT22;49973;52.084;5.412;2022-10-16T03:06:09;13.30;99.90
61912;DHT22;49973;52.084;5.412;2022-10-16T03:08:38;13.30;99.90
61912;DHT22;49973;52.084;5.412;2022-10-16T03:11:06;13.30;99.90
61912;DHT22;49973;52.084;5.412;2022-10-16T03:13:35;13.30;99.90
61912;DHT22;49973;52.084;5.412;2022-10-16T03:16:04;13.30;99.90
61912;DHT22;49973;52.084;5.412;2022-10-16T03:18:34;13.30;99.90
61912;DHT22;49973;52.084;5.412;2022-10-16T03:21:02;13.30;99.90
61912;DHT22;49973;52.084;5.412;2022-10-16T03:23:31;13.30;99.90
61912;DHT22;49973;52.084;5.412;2022-10-16T03:25:59;13.30;99.90
61912;DHT22;49973;52.084;5.412;2022-10-16T03:28:28;13.30;99.90
61912;DHT22;49973;52.084;5.412;2022-10-16T03:30:56;13.20;99.90
61912;DHT22;49973;52.084;5.412;2022-10-16T03:33:25;13.20;99.90
61912;DHT22;49973;52.084;5.412;2022-10-16T03:35:54;13.30;99.90
61912;DHT22;49973;52.084;5.412;2022-10-16T03:38:23;13.20;99.90
61912;DHT22;49973;52.084;5.412;2022-10-16T03:40:51;13.30;99.90
61912;DHT22;49973;52.084;5.412;2022-10-16T03:43:20;13.20;99.90
61912;DHT22;49973;52.084;5.412;2022-10-16T03:45:50;13.20;99.90
61912;DHT22;49973;52.084;5.412;2022-10-16T03:48:19;13.20;99.90
61912;DHT22;49973;52.084;5.412;2022-10-16T03:50:47;13.20;99.90
61912;DHT22;49973;52.084;5.412;2022-10-16T03:53:17;13.20;99.90
61912;DHT22;49973;52.084;5.412;2022-10-16T03:55:46;13.10;99.90
61912;DHT22;49973;52.084;5.412;2022-10-16T03:58:14;13.10;99.90
61912;DHT22;49973;52.084;5.412;2022-10-16T04:00:44;13.10;99.90
61912;DHT22;49973;52.084;5.412;2022-10-16T04:03:13;13.00;99.90
61912;DHT22;49973;52.084;5.412;2022-10-16T04:05:42;13.10;99.90
61912;DHT22;49973;52.084;5.412;2022-10-16T04:08:10;13.00;99.90
61912;DHT22;49973;52.084;5.412;2022-10-16T04:10:42;13.00;99.90
61912;DHT22;49973;52.084;5.412;2022-10-16T04:13:10;13.00;99.90
61912;DHT22;49973;52.084;5.412;2022-10-16T04:15:39;13.00;99.90
61912;DHT22;49973;52.084;5.412;2022-10-16T04:18:07;13.00;99.90
61912;DHT22;49973;52.084;5.412;2022-10-16T04:20:36;13.00;99.90
61912;DHT22;49973;52.084;5.412;2022-10-16T04:23:04;12.90;99.90
61912;DHT22;49973;52.084;5.412;2022-10-16T04:25:33;12.90;99.90
61912;DHT22;49973;52.084;5.412;2022-10-16T04:28:02;12.90;99.90
61912;DHT22;49973;52.084;5.412;2022-10-16T04:30:31;12.90;99.90
61912;DHT22;49973;52.084;5.412;2022-10-16T04:33:00;12.90;99.90
61912;DHT22;49973;52.084;5.412;2022-10-16T04:35:29;12.80;99.90
61912;DHT22;49973;52.084;5.412;2022-10-16T04:37:57;12.90;99.90
61912;DHT22;49973;52.084;5.412;2022-10-16T04:40:26;12.80;99.90
61912;DHT22;49973;52.084;5.412;2022-10-16T04:42:54;12.80;99.90
61912;DHT22;49973;52.084;5.412;2022-10-16T04:45:24;12.80;99.90
61912;DHT22;49973;52.084;5.412;2022-10-16T04:47:56;12.80;99.90
61912;DHT22;49973;52.084;5.412;2022-10-16T04:50:24;12.80;99.90
61912;DHT22;49973;52.084;5.412;2022-10-16T04:53:05;12.80;99.90
61912;DHT22;49973;52.084;5.412;2022-10-16T04:55:34;12.80;99.90
61912;DHT22;49973;52.084;5.412;2022-10-16T04:58:03;12.80;99.90
61912;DHT22;49973;52.084;5.412;2022-10-16T05:00:33;12.80;99.90
61912;DHT22;49973;52.084;5.412;2022-10-16T05:03:02;12.80;99.90
61912;DHT22;49973;52.084;5.412;2022-10-16T05:05:34;12.90;99.90
61912;DHT22;49973;52.084;5.412;2022-10-16T05:08:03;12.80;99.90
61912;DHT22;49973;52.084;5.412;2022-10-16T05:10:31;12.80;99.90
61912;DHT22;49973;52.084;5.412;2022-10-16T05:13:00;12.80;99.90
61912;DHT22;49973;52.084;5.412;2022-10-16T05:15:28;12.80;99.90
61912;DHT22;49973;52.084;5.412;2022-10-16T05:17:58;12.80;99.90
61912;DHT22;49973;52.084;5.412;2022-10-16T05:20:26;12.80;99.90
61912;DHT22;49973;52.084;5.412;2022-10-16T05:22:55;12.70;99.90
61912;DHT22;49973;52.084;5.412;2022-10-16T05:25:23;12.70;99.90
61912;DHT22;49973;52.084;5.412;2022-10-16T05:27:52;12.80;99.90
61912;DHT22;49973;52.084;5.412;2022-10-16T05:30:20;12.70;99.90
61912;DHT22;49973;52.084;5.412;2022-10-16T05:32:49;12.70;99.90
61912;DHT22;49973;52.084;5.412;2022-10-16T05:35:20;12.70;99.90
61912;DHT22;49973;52.084;5.412;2022-10-16T05:37:48;12.70;99.90
61912;DHT22;49973;52.084;5.412;2022-10-16T05:40:17;12.60;99.90
61912;DHT22;49973;52.084;5.412;2022-10-16T05:42:45;12.60;99.90
61912;DHT22;49973;52.084;5.412;2022-10-16T05:45:14;12.60;99.90
61912;DHT22;49973;52.084;5.412;2022-10-16T05:47:42;12.60;99.90
61912;DHT22;49973;52.084;5.412;2022-10-16T05:50:11;12.60;99.90
61912;DHT22;49973;52.084;5.412;2022-10-16T05:52:41;12.60;99.90
61912;DHT22;49973;52.084;5.412;2022-10-16T05:55:09;12.60;99.90
61912;DHT22;49973;52.084;5.412;2022-10-16T05:57:38;12.70;99.90
61912;DHT22;49973;52.084;5.412;2022-10-16T06:00:07;12.70;99.90
61912;DHT22;49973;52.084;5.412;2022-10-16T06:02:39;12.70;99.90
61912;DHT22;49973;52.084;5.412;2022-10-16T06:05:07;12.70;99.90
61912;DHT22;49973;52.084;5.412;2022-10-16T06:07:36;12.80;99.90
61912;DHT22;49973;52.084;5.412;2022-10-16T06:10:07;12.80;99.90
61912;DHT22;49973;52.084;5.412;2022-10-16T06:12:36;12.80;99.90
61912;DHT22;49973;52.084;5.412;2022-10-16T06:15:05;12.90;99.90
61912;DHT22;49973;52.084;5.412;2022-10-16T06:17:33;12.90;99.90
61912;DHT22;49973;52.084;5.412;2022-10-16T06:20:02;12.90;99.90
61912;DHT22;49973;52.084;5.412;2022-10-16T06:22:30;13.00;99.90
61912;DHT22;49973;52.084;5.412;2022-10-16T06:24:59;13.00;99.90
61912;DHT22;49973;52.084;5.412;2022-10-16T06:27:29;13.00;99.90
61912;DHT22;49973;52.084;5.412;2022-10-16T06:29:57;13.00;99.90
61912;DHT22;49973;52.084;5.412;2022-10-16T06:32:27;13.20;99.90
61912;DHT22;49973;52.084;5.412;2022-10-16T06:34:55;13.10;99.90
61912;DHT22;49973;52.084;5.412;2022-10-16T06:37:24;13.20;99.90
61912;DHT22;49973;52.084;5.412;2022-10-16T06:39:53;13.20;99.90
61912;DHT22;49973;52.084;5.412;2022-10-16T06:42:21;13.20;99.90
61912;DHT22;49973;52.084;5.412;2022-10-16T06:44:52;13.20;99.90
61912;DHT22;49973;52.084;5.412;2022-10-16T06:47:20;13.20;99.90
61912;DHT22;49973;52.084;5.412;2022-10-16T06:49:49;13.30;99.90
61912;DHT22;49973;52.084;5.412;2022-10-16T06:52:20;13.30;99.90
61912;DHT22;49973;52.084;5.412;2022-10-16T06:54:49;13.30;99.90
61912;DHT22;49973;52.084;5.412;2022-10-16T06:57:18;13.40;99.90
61912;DHT22;49973;52.084;5.412;2022-10-16T06:59:46;13.40;99.90
61912;DHT22;49973;52.084;5.412;2022-10-16T07:02:22;13.40;99.90
61912;DHT22;49973;52.084;5.412;2022-10-16T07:04:52;13.50;99.90
61912;DHT22;49973;52.084;5.412;2022-10-16T07:07:20;13.50;99.90
61912;DHT22;49973;52.084;5.412;2022-10-16T07:09:51;13.60;99.90
61912;DHT22;49973;52.084;5.412;2022-10-16T07:12:20;13.60;99.90
61912;DHT22;49973;52.084;5.412;2022-10-16T07:14:49;13.70;99.90
61912;DHT22;49973;52.084;5.412;2022-10-16T07:17:19;13.60;99.90
61912;DHT22;49973;52.084;5.412;2022-10-16T07:19:49;13.60;99.90
61912;DHT22;49973;52.084;5.412;2022-10-16T07:22:19;13.70;99.90
61912;DHT22;49973;52.084;5.412;2022-10-16T07:24:48;13.80;99.90
61912;DHT22;49973;52.084;5.412;2022-10-16T07:27:19;13.70;99.90
61912;DHT22;49973;52.084;5.412;2022-10-16T07:29:49;13.70;99.90
61912;DHT22;49973;52.084;5.412;2022-10-16T07:32:17;13.70;99.90
61912;DHT22;49973;52.084;5.412;2022-10-16T07:34:46;13.70;99.90
61912;DHT22;49973;52.084;5.412;2022-10-16T07:37:16;13.70;99.90
61912;DHT22;49973;52.084;5.412;2022-10-16T07:39:44;13.80;99.90
61912;DHT22;49973;52.084;5.412;2022-10-16T07:42:13;13.80;99.90
61912;DHT22;49973;52.084;5.412;2022-10-16T07:44:41;13.90;99.90
61912;DHT22;49973;52.084;5.412;2022-10-16T07:47:10;14.00;99.90
61912;DHT22;49973;52.084;5.412;2022-10-16T07:49:38;14.00;99.90
61912;DHT22;49973;52.084;5.412;2022-10-16T07:52:07;14.10;99.90
61912;DHT22;49973;52.084;5.412;2022-10-16T07:54:37;14.10;99.90
61912;DHT22;49973;52.084;5.412;2022-10-16T07:57:05;14.20;99.90
61912;DHT22;49973;52.084;5.412;2022-10-16T07:59:34;14.20;99.90
61912;DHT22;49973;52.084;5.412;2022-10-16T08:02:02;14.30;99.90
61912;DHT22;49973;52.084;5.412;2022-10-16T08:04:31;14.30;99.90
61912;DHT22;49973;52.084;5.412;2022-10-16T08:06:59;14.30;99.90
61912;DHT22;49973;52.084;5.412;2022-10-16T08:09:28;14.30;99.90
61912;DHT22;49973;52.084;5.412;2022-10-16T08:12:00;14.30;99.90
61912;DHT22;49973;52.084;5.412;2022-10-16T08:14:29;14.30;99.90
61912;DHT22;49973;52.084;5.412;2022-10-16T08:16:57;14.30;99.90
61912;DHT22;49973;52.084;5.412;2022-10-16T08:19:26;14.40;99.90
61912;DHT22;49973;52.084;5.412;2022-10-16T08:21:54;14.40;99.90
61912;DHT22;49973;52.084;5.412;2022-10-16T08:24:23;14.40;99.90
61912;DHT22;49973;52.084;5.412;2022-10-16T08:26:53;14.30;99.90
61912;DHT22;49973;52.084;5.412;2022-10-16T08:29:23;14.40;99.90
61912;DHT22;49973;52.084;5.412;2022-10-16T08:31:51;14.40;99.90
61912;DHT22;49973;52.084;5.412;2022-10-16T08:34:20;14.40;99.90
61912;DHT22;49973;52.084;5.412;2022-10-16T08:36:48;14.40;99.90
61912;DHT22;49973;52.084;5.412;2022-10-16T08:39:16;14.50;99.90
61912;DHT22;49973;52.084;5.412;2022-10-16T08:42:07;14.50;99.90
61912;DHT22;49973;52.084;5.412;2022-10-16T08:47:48;14.60;99.90
61912;DHT22;49973;52.084;5.412;2022-10-16T08:50:22;14.60;99.90
61912;DHT22;49973;52.084;5.412;2022-10-16T08:52:52;14.70;99.90
61912;DHT22;49973;52.084;5.412;2022-10-16T08:55:30;14.80;99.90
61912;DHT22;49973;52.084;5.412;2022-10-16T08:58:00;14.90;99.90
61912;DHT22;49973;52.084;5.412;2022-10-16T09:00:29;15.00;99.90
61912;DHT22;49973;52.084;5.412;2022-10-16T09:03:06;15.10;99.90
61912;DHT22;49973;52.084;5.412;2022-10-16T09:05:54;15.10;99.90
61912;DHT22;49973;52.084;5.412;2022-10-16T09:08:31;15.20;99.90
61912;DHT22;49973;52.084;5.412;2022-10-16T09:11:08;15.20;99.90
61912;DHT22;49973;52.084;5.412;2022-10-16T09:13:47;15.30;99.90
61912;DHT22;49973;52.084;5.412;2022-10-16T09:16:19;15.20;99.90
61912;DHT22;49973;52.084;5.412;2022-10-16T09:18:58;15.30;99.90
61912;DHT22;49973;52.084;5.412;2022-10-16T09:21:30;15.30;99.90
61912;DHT22;49973;52.084;5.412;2022-10-16T09:24:04;15.30;99.90
61912;DHT22;49973;52.084;5.412;2022-10-16T09:26:33;15.40;99.90
61912;DHT22;49973;52.084;5.412;2022-10-16T09:29:02;15.40;99.90
61912;DHT22;49973;52.084;5.412;2022-10-16T09:31:31;15.40;99.90
61912;DHT22;49973;52.084;5.412;2022-10-16T09:34:05;15.40;99.90
61912;DHT22;49973;52.084;5.412;2022-10-16T09:36:39;15.50;99.90
61912;DHT22;49973;52.084;5.412;2022-10-16T09:39:10;15.50;99.90
61912;DHT22;49973;52.084;5.412;2022-10-16T09:41:42;15.60;99.90
61912;DHT22;49973;52.084;5.412;2022-10-16T09:44:21;15.70;99.90
61912;DHT22;49973;52.084;5.412;2022-10-16T09:47:01;15.70;99.90
61912;DHT22;49973;52.084;5.412;2022-10-16T09:49:31;15.70;99.90
61912;DHT22;49973;52.084;5.412;2022-10-16T09:52:04;15.80;99.90
61912;DHT22;49973;52.084;5.412;2022-10-16T09:54:33;15.80;99.90
61912;DHT22;49973;52.084;5.412;2022-10-16T09:57:06;15.90;99.90
61912;DHT22;49973;52.084;5.412;2022-10-16T09:59:46;16.00;99.90
61912;DHT22;49973;52.084;5.412;2022-10-16T10:02:16;16.10;99.90
61912;DHT22;49973;52.084;5.412;2022-10-16T10:04:50;16.30;99.90
61912;DHT22;49973;52.084;5.412;2022-10-16T10:07:24;16.30;99.90
61912;DHT22;49973;52.084;5.412;2022-10-16T10:09:56;16.40;99.90
61912;DHT22;49973;52.084;5.412;2022-10-16T10:12:27;16.40;99.90
61912;DHT22;49973;52.084;5.412;2022-10-16T10:14:58;16.40;99.90
61912;DHT22;49973;52.084;5.412;2022-10-16T10:17:32;16.40;99.90
61912;DHT22;49973;52.084;5.412;2022-10-16T10:20:21;16.40;99.90
61912;DHT22;49973;52.084;5.412;2022-10-16T10:22:50;16.30;99.90
61912;DHT22;49973;52.084;5.412;2022-10-16T10:25:35;16.40;99.90
61912;DHT22;49973;52.084;5.412;2022-10-16T10:28:21;16.40;99.90
61912;DHT22;49973;52.084;5.412;2022-10-16T10:30:57;16.40;99.90
61912;DHT22;49973;52.084;5.412;2022-10-16T10:33:34;16.40;99.90
61912;DHT22;49973;52.084;5.412;2022-10-16T10:36:14;16.40;99.90
61912;DHT22;49973;52.084;5.412;2022-10-16T10:38:49;16.40;99.90
61912;DHT22;49973;52.084;5.412;2022-10-16T10:41:51;16.40;99.90
61912;DHT22;49973;52.084;5.412;2022-10-16T10:44:35;16.40;99.90
61912;DHT22;49973;52.084;5.412;2022-10-16T10:47:16;16.40;99.90
61912;DHT22;49973;52.084;5.412;2022-10-16T10:49:54;16.40;99.90
61912;DHT22;49973;52.084;5.412;2022-10-16T10:52:38;16.50;99.90
61912;DHT22;49973;52.084;5.412;2022-10-16T10:55:16;16.50;99.90
61912;DHT22;49973;52.084;5.412;2022-10-16T10:58:00;16.50;99.90
61912;DHT22;49973;52.084;5.412;2022-10-16T11:00:41;16.60;99.90
61912;DHT22;49973;52.084;5.412;2022-10-16T11:03:20;16.70;99.90
61912;DHT22;49973;52.084;5.412;2022-10-16T11:05:56;16.70;99.90
61912;DHT22;49973;52.084;5.412;2022-10-16T11:08:32;16.80;99.90
61912;DHT22;49973;52.084;5.412;2022-10-16T11:11:04;16.80;99.90
61912;DHT22;49973;52.084;5.412;2022-10-16T11:13:38;16.80;99.90
61912;DHT22;49973;52.084;5.412;2022-10-16T11:16:14;16.90;99.90
61912;DHT22;49973;52.084;5.412;2022-10-16T11:18:52;16.90;99.90
61912;DHT22;49973;52.084;5.412;2022-10-16T11:21:24;16.80;99.90
61912;DHT22;49973;52.084;5.412;2022-10-16T11:24:01;16.90;99.90
61912;DHT22;49973;52.084;5.412;2022-10-16T11:26:35;16.90;99.90
61912;DHT22;49973;52.084;5.412;2022-10-16T11:29:12;17.00;99.90
61912;DHT22;49973;52.084;5.412;2022-10-16T11:31:47;17.10;99.90
61912;DHT22;49973;52.084;5.412;2022-10-16T11:34:22;17.10;99.90
61912;DHT22;49973;52.084;5.412;2022-10-16T11:36:57;17.10;99.90
61912;DHT22;49973;52.084;5.412;2022-10-16T11:39:29;17.10;99.90
61912;DHT22;49973;52.084;5.412;2022-10-16T11:42:03;17.10;99.90
61912;DHT22;49973;52.084;5.412;2022-10-16T11:44:40;17.00;99.90
61912;DHT22;49973;52.084;5.412;2022-10-16T11:47:22;16.90;99.90
61912;DHT22;49973;52.084;5.412;2022-10-16T11:50:20;16.70;99.90
61912;DHT22;49973;52.084;5.412;2022-10-16T11:52:55;16.70;99.90
61912;DHT22;49973;52.084;5.412;2022-10-16T11:55:31;16.70;99.90
61912;DHT22;49973;52.084;5.412;2022-10-16T11:58:03;16.70;99.90
61912;DHT22;49973;52.084;5.412;2022-10-16T12:00:39;16.70;99.90
61912;DHT22;49973;52.084;5.412;2022-10-16T12:03:17;16.70;99.90
61912;DHT22;49973;52.084;5.412;2022-10-16T12:05:55;16.80;99.90
61912;DHT22;49973;52.084;5.412;2022-10-16T12:08:27;16.70;99.90
61912;DHT22;49973;52.084;5.412;2022-10-16T12:11:06;16.90;99.90
61912;DHT22;49973;52.084;5.412;2022-10-16T12:13:37;16.80;99.90
61912;DHT22;49973;52.084;5.412;2022-10-16T12:16:16;16.80;99.90
61912;DHT22;49973;52.084;5.412;2022-10-16T12:18:48;16.80;99.90
61912;DHT22;49973;52.084;5.412;2022-10-16T12:21:17;16.90;99.90
61912;DHT22;49973;52.084;5.412;2022-10-16T12:23:49;17.00;99.90
61912;DHT22;49973;52.084;5.412;2022-10-16T12:26:27;17.00;99.90
61912;DHT22;49973;52.084;5.412;2022-10-16T12:29:14;17.00;99.90
61912;DHT22;49973;52.084;5.412;2022-10-16T12:31:48;17.10;99.90
61912;DHT22;49973;52.084;5.412;2022-10-16T12:34:28;17.10;99.90
61912;DHT22;49973;52.084;5.412;2022-10-16T12:37:13;17.10;99.90
61912;DHT22;49973;52.084;5.412;2022-10-16T12:39:43;17.10;99.90
61912;DHT22;49973;52.084;5.412;2022-10-16T12:42:31;17.10;99.90
61912;DHT22;49973;52.084;5.412;2022-10-16T12:45:01;17.10;99.90
61912;DHT22;49973;52.084;5.412;2022-10-16T12:47:38;17.10;99.90
61912;DHT22;49973;52.084;5.412;2022-10-16T12:50:30;17.20;99.90
61912;DHT22;49973;52.084;5.412;2022-10-16T12:53:00;17.20;99.90
61912;DHT22;49973;52.084;5.412;2022-10-16T12:55:43;17.20;99.90
61912;DHT22;49973;52.084;5.412;2022-10-16T12:58:39;17.20;99.90
61912;DHT22;49973;52.084;5.412;2022-10-16T13:01:20;17.30;99.90
61912;DHT22;49973;52.084;5.412;2022-10-16T13:07:05;17.40;99.90
61912;DHT22;49973;52.084;5.412;2022-10-16T13:09:47;17.40;99.90
61912;DHT22;49973;52.084;5.412;2022-10-16T13:12:30;17.50;99.90
61912;DHT22;49973;52.084;5.412;2022-10-16T13:18:07;17.70;99.90
61912;DHT22;49973;52.084;5.412;2022-10-16T13:20:55;17.80;99.90
61912;DHT22;49973;52.084;5.412;2022-10-16T13:23:30;17.90;99.90
61912;DHT22;49973;52.084;5.412;2022-10-16T13:26:12;17.90;99.90
61912;DHT22;49973;52.084;5.412;2022-10-16T13:28:42;17.90;99.90
61912;DHT22;49973;52.084;5.412;2022-10-16T13:31:17;17.90;99.90
61912;DHT22;49973;52.084;5.412;2022-10-16T13:33:48;18.00;99.90
61912;DHT22;49973;52.084;5.412;2022-10-16T13:36:20;18.00;99.90
61912;DHT22;49973;52.084;5.412;2022-10-16T13:38:51;18.00;99.90
61912;DHT22;49973;52.084;5.412;2022-10-16T13:41:28;18.00;99.90
61912;DHT22;49973;52.084;5.412;2022-10-16T13:43:56;18.00;99.90
61912;DHT22;49973;52.084;5.412;2022-10-16T13:46:26;18.00;99.90
61912;DHT22;49973;52.084;5.412;2022-10-16T13:48:57;18.00;99.90
61912;DHT22;49973;52.084;5.412;2022-10-16T13:51:27;18.00;99.90
61912;DHT22;49973;52.084;5.412;2022-10-16T13:53:56;18.00;99.90
61912;DHT22;49973;52.084;5.412;2022-10-16T13:56:27;18.00;99.90
61912;DHT22;49973;52.084;5.412;2022-10-16T13:59:00;18.00;99.90
61912;DHT22;49973;52.084;5.412;2022-10-16T14:01:32;18.00;99.90
61912;DHT22;49973;52.084;5.412;2022-10-16T14:04:04;18.00;99.90
61912;DHT22;49973;52.084;5.412;2022-10-16T14:06:33;18.00;99.90
61912;DHT22;49973;52.084;5.412;2022-10-16T14:09:06;18.00;99.90
61912;DHT22;49973;52.084;5.412;2022-10-16T14:11:44;18.00;99.90
61912;DHT22;49973;52.084;5.412;2022-10-16T14:14:14;18.00;99.90
61912;DHT22;49973;52.084;5.412;2022-10-16T14:16:45;18.00;99.90
61912;DHT22;49973;52.084;5.412;2022-10-16T14:19:19;18.00;99.90
61912;DHT22;49973;52.084;5.412;2022-10-16T14:21:49;18.00;99.90
61912;DHT22;49973;52.084;5.412;2022-10-16T14:24:27;18.00;99.90
61912;DHT22;49973;52.084;5.412;2022-10-16T14:26:55;18.00;99.90
61912;DHT22;49973;52.084;5.412;2022-10-16T14:29:25;18.00;99.90
61912;DHT22;49973;52.084;5.412;2022-10-16T14:31:56;18.00;99.90
61912;DHT22;49973;52.084;5.412;2022-10-16T14:34:28;17.90;99.90
61912;DHT22;49973;52.084;5.412;2022-10-16T14:36:59;17.90;99.90
61912;DHT22;49973;52.084;5.412;2022-10-16T14:39:29;17.90;99.90
61912;DHT22;49973;52.084;5.412;2022-10-16T14:41:58;17.90;99.90
61912;DHT22;49973;52.084;5.412;2022-10-16T14:44:31;17.90;99.90
61912;DHT22;49973;52.084;5.412;2022-10-16T14:47:09;17.90;99.90
61912;DHT22;49973;52.084;5.412;2022-10-16T14:49:38;17.90;99.90
61912;DHT22;49973;52.084;5.412;2022-10-16T14:52:10;17.90;99.90
61912;DHT22;49973;52.084;5.412;2022-10-16T14:54:38;17.90;99.90
61912;DHT22;49973;52.084;5.412;2022-10-16T14:57:16;17.90;99.90
61912;DHT22;49973;52.084;5.412;2022-10-16T14:59:45;17.80;99.90
61912;DHT22;49973;52.084;5.412;2022-10-16T15:02:22;17.90;99.90
61912;DHT22;49973;52.084;5.412;2022-10-16T15:04:52;17.80;99.90
61912;DHT22;49973;52.084;5.412;2022-10-16T15:07:21;17.70;99.90
61912;DHT22;49973;52.084;5.412;2022-10-16T15:09:50;17.70;99.90
61912;DHT22;49973;52.084;5.412;2022-10-16T15:12:18;17.70;99.90
61912;DHT22;49973;52.084;5.412;2022-10-16T15:14:47;17.70;99.90
61912;DHT22;49973;52.084;5.412;2022-10-16T15:17:16;17.80;99.90
61912;DHT22;49973;52.084;5.412;2022-10-16T15:19:48;17.70;99.90
61912;DHT22;49973;52.084;5.412;2022-10-16T15:22:18;17.60;99.90
61912;DHT22;49973;52.084;5.412;2022-10-16T15:24:46;17.60;99.90
61912;DHT22;49973;52.084;5.412;2022-10-16T15:27:15;17.60;99.90
61912;DHT22;49973;52.084;5.412;2022-10-16T15:29:43;17.50;99.90
61912;DHT22;49973;52.084;5.412;2022-10-16T15:32:12;17.40;99.90
61912;DHT22;49973;52.084;5.412;2022-10-16T15:34:41;17.30;99.90
61912;DHT22;49973;52.084;5.412;2022-10-16T15:37:10;17.30;99.90
61912;DHT22;49973;52.084;5.412;2022-10-16T15:39:40;17.30;99.90
61912;DHT22;49973;52.084;5.412;2022-10-16T15:42:09;17.10;99.90
61912;DHT22;49973;52.084;5.412;2022-10-16T15:44:37;17.20;99.90
61912;DHT22;49973;52.084;5.412;2022-10-16T15:47:06;16.90;99.90
61912;DHT22;49973;52.084;5.412;2022-10-16T15:49:34;16.90;99.90
61912;DHT22;49973;52.084;5.412;2022-10-16T15:52:04;16.80;99.90
61912;DHT22;49973;52.084;5.412;2022-10-16T15:54:33;16.70;99.90
61912;DHT22;49973;52.084;5.412;2022-10-16T15:57:01;16.60;99.90
61912;DHT22;49973;52.084;5.412;2022-10-16T15:59:30;16.60;99.90
61912;DHT22;49973;52.084;5.412;2022-10-16T16:01:58;16.40;99.90
61912;DHT22;49973;52.084;5.412;2022-10-16T16:04:29;16.40;99.90
61912;DHT22;49973;52.084;5.412;2022-10-16T16:07:12;16.30;99.90
61912;DHT22;49973;52.084;5.412;2022-10-16T16:09:40;16.30;99.90